sensor_id;sensor_type;location;lat;lon;timestamp;P1;durP1;ratioP1;P2;durP2;ratioP2
13108;SDS011;6620;53.734;11.510;2023-02-05T00:01:29;1.30;;;1.20;;
13108;SDS011;6620;53.734;11.510;2023-02-05T00:03:54;3.17;;;1.40;;
13108;SDS011;6620;53.734;11.510;2023-02-05T00:06:20;2.67;;;1.67;;
13108;SDS011;6620;53.734;11.510;2023-02-05T00:08:45;3.85;;;1.30;;
13108;SDS011;6620;53.734;11.510;2023-02-05T00:11:10;1.65;;;1.15;;
13108;SDS011;6620;53.734;11.510;2023-02-05T00:13:36;1.85;;;1.15;;
13108;SDS011;6620;53.734;11.510;2023-02-05T00:18:32;2.08;;;1.33;;
13108;SDS011;6620;53.734;11.510;2023-02-05T00:20:58;1.63;;;1.42;;
13108;SDS011;6620;53.734;11.510;2023-02-05T00:23:23;2.92;;;1.17;;
13108;SDS011;6620;53.734;11.510;2023-02-05T00:25:48;1.77;;;1.10;;
13108;SDS011;6620;53.734;11.510;2023-02-05T00:28:13;2.55;;;1.30;;
13108;SDS011;6620;53.734;11.510;2023-02-05T00:30:39;3.28;;;1.80;;
13108;SDS011;6620;53.734;11.510;2023-02-05T00:33:04;3.42;;;0.95;;
13108;SDS011;6620;53.734;11.510;2023-02-05T00:35:29;5.53;;;1.30;;
13108;SDS011;6620;53.734;11.510;2023-02-05T00:37:54;3.33;;;1.40;;
13108;SDS011;6620;53.734;11.510;2023-02-05T00:40:20;1.23;;;0.90;;
13108;SDS011;6620;53.734;11.510;2023-02-05T00:42:45;1.47;;;1.13;;
13108;SDS011;6620;53.734;11.510;2023-02-05T00:45:10;1.60;;;1.03;;
13108;SDS011;6620;53.734;11.510;2023-02-05T00:47:35;0.77;;;0.67;;
13108;SDS011;6620;53.734;11.510;2023-02-05T00:50:00;3.73;;;1.13;;
13108;SDS011;6620;53.734;11.510;2023-02-05T00:52:26;1.53;;;0.97;;
13108;SDS011;6620;53.734;11.510;2023-02-05T00:54:51;2.83;;;1.13;;
13108;SDS011;6620;53.734;11.510;2023-02-05T00:57:17;3.65;;;1.33;;
13108;SDS011;6620;53.734;11.510;2023-02-05T00:59:42;1.47;;;1.27;;
13108;SDS011;6620;53.734;11.510;2023-02-05T01:02:07;2.70;;;1.40;;
13108;SDS011;6620;53.734;11.510;2023-02-05T01:04:33;3.07;;;0.90;;
13108;SDS011;6620;53.734;11.510;2023-02-05T01:06:58;3.22;;;1.23;;
13108;SDS011;6620;53.734;11.510;2023-02-05T01:09:23;1.77;;;1.07;;
13108;SDS011;6620;53.734;11.510;2023-02-05T01:11:48;2.67;;;1.10;;
13108;SDS011;6620;53.734;11.510;2023-02-05T01:14:13;1.55;;;0.88;;
13108;SDS011;6620;53.734;11.510;2023-02-05T01:16:39;1.95;;;1.05;;
13108;SDS011;6620;53.734;11.510;2023-02-05T01:19:04;2.60;;;0.90;;
13108;SDS011;6620;53.734;11.510;2023-02-05T01:21:29;1.90;;;1.03;;
13108;SDS011;6620;53.734;11.510;2023-02-05T01:23:54;3.67;;;1.20;;
13108;SDS011;6620;53.734;11.510;2023-02-05T01:26:21;5.63;;;1.17;;
13108;SDS011;6620;53.734;11.510;2023-02-05T01:28:47;1.73;;;1.30;;
13108;SDS011;6620;53.734;11.510;2023-02-05T01:31:12;1.88;;;1.10;;
13108;SDS011;6620;53.734;11.510;2023-02-05T01:33:37;2.53;;;0.90;;
13108;SDS011;6620;53.734;11.510;2023-02-05T01:36:03;0.93;;;0.80;;
13108;SDS011;6620;53.734;11.510;2023-02-05T01:38:28;1.52;;;1.15;;
13108;SDS011;6620;53.734;11.510;2023-02-05T01:40:53;2.73;;;1.20;;
13108;SDS011;6620;53.734;11.510;2023-02-05T01:43:18;2.15;;;0.93;;
13108;SDS011;6620;53.734;11.510;2023-02-05T01:48:28;1.63;;;1.00;;
13108;SDS011;6620;53.734;11.510;2023-02-05T01:50:57;2.92;;;1.33;;
13108;SDS011;6620;53.734;11.510;2023-02-05T01:53:27;2.83;;;0.82;;
13108;SDS011;6620;53.734;11.510;2023-02-05T01:55:54;3.00;;;1.13;;
13108;SDS011;6620;53.734;11.510;2023-02-05T01:58:22;3.35;;;1.30;;
13108;SDS011;6620;53.734;11.510;2023-02-05T02:00:48;4.60;;;1.00;;
13108;SDS011;6620;53.734;11.510;2023-02-05T02:03:13;3.65;;;1.08;;
13108;SDS011;6620;53.734;11.510;2023-02-05T02:05:39;1.58;;;0.70;;
13108;SDS011;6620;53.734;11.510;2023-02-05T02:08:04;2.50;;;1.30;;
13108;SDS011;6620;53.734;11.510;2023-02-05T02:10:29;2.35;;;1.15;;
13108;SDS011;6620;53.734;11.510;2023-02-05T02:12:55;1.60;;;0.93;;
13108;SDS011;6620;53.734;11.510;2023-02-05T02:15:21;3.38;;;1.00;;
13108;SDS011;6620;53.734;11.510;2023-02-05T02:17:48;2.80;;;0.88;;
13108;SDS011;6620;53.734;11.510;2023-02-05T02:20:15;1.77;;;1.00;;
13108;SDS011;6620;53.734;11.510;2023-02-05T02:33:00;3.17;;;0.98;;
13108;SDS011;6620;53.734;11.510;2023-02-05T02:35:33;1.75;;;0.93;;
13108;SDS011;6620;53.734;11.510;2023-02-05T02:40:45;2.35;;;1.02;;
13108;SDS011;6620;53.734;11.510;2023-02-05T02:43:14;2.28;;;1.05;;
13108;SDS011;6620;53.734;11.510;2023-02-05T02:45:46;1.30;;;1.20;;
13108;SDS011;6620;53.734;11.510;2023-02-05T02:48:12;2.72;;;0.90;;
13108;SDS011;6620;53.734;11.510;2023-02-05T02:50:40;2.10;;;0.95;;
13108;SDS011;6620;53.734;11.510;2023-02-05T02:53:08;2.42;;;1.45;;
13108;SDS011;6620;53.734;11.510;2023-02-05T02:55:35;2.03;;;1.20;;
13108;SDS011;6620;53.734;11.510;2023-02-05T02:58:01;1.98;;;0.90;;
13108;SDS011;6620;53.734;11.510;2023-02-05T03:00:27;4.72;;;1.20;;
13108;SDS011;6620;53.734;11.510;2023-02-05T03:02:55;4.47;;;1.45;;
13108;SDS011;6620;53.734;11.510;2023-02-05T03:05:22;1.27;;;0.90;;
13108;SDS011;6620;53.734;11.510;2023-02-05T03:07:58;2.05;;;1.15;;
13108;SDS011;6620;53.734;11.510;2023-02-05T03:10:25;0.80;;;0.80;;
13108;SDS011;6620;53.734;11.510;2023-02-05T03:12:54;1.77;;;1.15;;
13108;SDS011;6620;53.734;11.510;2023-02-05T03:15:20;1.85;;;0.80;;
13108;SDS011;6620;53.734;11.510;2023-02-05T03:17:45;1.95;;;1.15;;
13108;SDS011;6620;53.734;11.510;2023-02-05T03:22:41;2.00;;;1.00;;
13108;SDS011;6620;53.734;11.510;2023-02-05T03:25:07;2.27;;;1.33;;
13108;SDS011;6620;53.734;11.510;2023-02-05T03:27:32;1.67;;;1.15;;
13108;SDS011;6620;53.734;11.510;2023-02-05T03:29:58;4.65;;;1.45;;
13108;SDS011;6620;53.734;11.510;2023-02-05T03:35:04;2.27;;;1.20;;
13108;SDS011;6620;53.734;11.510;2023-02-05T03:40:05;4.13;;;1.15;;
13108;SDS011;6620;53.734;11.510;2023-02-05T03:42:35;2.10;;;0.95;;
13108;SDS011;6620;53.734;11.510;2023-02-05T03:52:49;1.45;;;1.33;;
13108;SDS011;6620;53.734;11.510;2023-02-05T03:55:20;0.75;;;0.75;;
13108;SDS011;6620;53.734;11.510;2023-02-05T04:00:14;2.03;;;1.15;;
13108;SDS011;6620;53.734;11.510;2023-02-05T04:02:39;1.65;;;0.90;;
13108;SDS011;6620;53.734;11.510;2023-02-05T04:05:05;1.58;;;1.00;;
13108;SDS011;6620;53.734;11.510;2023-02-05T04:07:31;3.03;;;1.58;;
13108;SDS011;6620;53.734;11.510;2023-02-05T04:09:56;2.07;;;0.97;;
13108;SDS011;6620;53.734;11.510;2023-02-05T04:12:21;3.23;;;1.47;;
13108;SDS011;6620;53.734;11.510;2023-02-05T04:14:46;2.33;;;1.23;;
13108;SDS011;6620;53.734;11.510;2023-02-05T04:17:11;4.90;;;1.10;;
13108;SDS011;6620;53.734;11.510;2023-02-05T04:19:37;3.47;;;0.95;;
13108;SDS011;6620;53.734;11.510;2023-02-05T04:22:02;1.55;;;1.02;;
13108;SDS011;6620;53.734;11.510;2023-02-05T04:24:27;1.20;;;1.10;;
13108;SDS011;6620;53.734;11.510;2023-02-05T04:26:52;2.53;;;0.93;;
13108;SDS011;6620;53.734;11.510;2023-02-05T04:29:18;1.90;;;1.17;;
13108;SDS011;6620;53.734;11.510;2023-02-05T04:31:43;1.38;;;0.82;;
13108;SDS011;6620;53.734;11.510;2023-02-05T04:34:08;2.70;;;1.10;;
13108;SDS011;6620;53.734;11.510;2023-02-05T04:36:34;3.23;;;1.07;;
13108;SDS011;6620;53.734;11.510;2023-02-05T04:38:59;2.38;;;0.82;;
13108;SDS011;6620;53.734;11.510;2023-02-05T04:41:24;3.17;;;0.67;;
13108;SDS011;6620;53.734;11.510;2023-02-05T04:43:49;3.87;;;1.13;;
13108;SDS011;6620;53.734;11.510;2023-02-05T04:46:15;1.20;;;0.93;;
13108;SDS011;6620;53.734;11.510;2023-02-05T04:48:40;3.80;;;0.70;;
13108;SDS011;6620;53.734;11.510;2023-02-05T04:51:06;1.08;;;0.95;;
13108;SDS011;6620;53.734;11.510;2023-02-05T04:53:31;1.73;;;0.63;;
13108;SDS011;6620;53.734;11.510;2023-02-05T04:56:03;1.77;;;0.73;;
13108;SDS011;6620;53.734;11.510;2023-02-05T04:58:28;3.70;;;0.93;;
13108;SDS011;6620;53.734;11.510;2023-02-05T05:00:54;8.10;;;2.33;;
13108;SDS011;6620;53.734;11.510;2023-02-05T05:03:19;0.90;;;0.80;;
13108;SDS011;6620;53.734;11.510;2023-02-05T05:05:44;0.90;;;0.70;;
13108;SDS011;6620;53.734;11.510;2023-02-05T05:08:11;2.78;;;1.00;;
13108;SDS011;6620;53.734;11.510;2023-02-05T05:10:37;1.98;;;0.77;;
13108;SDS011;6620;53.734;11.510;2023-02-05T05:13:02;1.55;;;0.90;;
13108;SDS011;6620;53.734;11.510;2023-02-05T05:15:28;3.03;;;1.20;;
13108;SDS011;6620;53.734;11.510;2023-02-05T05:17:53;1.23;;;0.88;;
13108;SDS011;6620;53.734;11.510;2023-02-05T05:20:18;5.53;;;1.40;;
13108;SDS011;6620;53.734;11.510;2023-02-05T05:22:43;1.17;;;0.80;;
13108;SDS011;6620;53.734;11.510;2023-02-05T05:25:08;3.10;;;0.80;;
13108;SDS011;6620;53.734;11.510;2023-02-05T05:27:34;1.63;;;0.95;;
13108;SDS011;6620;53.734;11.510;2023-02-05T05:29:59;3.67;;;0.77;;
13108;SDS011;6620;53.734;11.510;2023-02-05T05:32:24;5.23;;;0.97;;
13108;SDS011;6620;53.734;11.510;2023-02-05T05:34:49;0.70;;;0.60;;
13108;SDS011;6620;53.734;11.510;2023-02-05T05:37:14;1.70;;;0.87;;
13108;SDS011;6620;53.734;11.510;2023-02-05T05:39:39;3.07;;;1.13;;
13108;SDS011;6620;53.734;11.510;2023-02-05T05:42:23;0.43;;;0.35;;
13108;SDS011;6620;53.734;11.510;2023-02-05T05:45:07;1.98;;;1.17;;
13108;SDS011;6620;53.734;11.510;2023-02-05T05:47:32;1.33;;;0.80;;
13108;SDS011;6620;53.734;11.510;2023-02-05T05:49:58;2.50;;;0.67;;
13108;SDS011;6620;53.734;11.510;2023-02-05T05:52:23;1.80;;;0.80;;
13108;SDS011;6620;53.734;11.510;2023-02-05T05:54:48;5.07;;;1.73;;
13108;SDS011;6620;53.734;11.510;2023-02-05T05:57:13;3.03;;;0.60;;
13108;SDS011;6620;53.734;11.510;2023-02-05T05:59:38;1.93;;;0.93;;
13108;SDS011;6620;53.734;11.510;2023-02-05T06:02:04;2.35;;;0.70;;
13108;SDS011;6620;53.734;11.510;2023-02-05T06:04:29;4.40;;;1.00;;
13108;SDS011;6620;53.734;11.510;2023-02-05T06:06:54;1.25;;;0.80;;
13108;SDS011;6620;53.734;11.510;2023-02-05T06:09:20;3.80;;;1.00;;
13108;SDS011;6620;53.734;11.510;2023-02-05T06:11:46;1.40;;;1.00;;
13108;SDS011;6620;53.734;11.510;2023-02-05T06:14:11;2.63;;;0.68;;
13108;SDS011;6620;53.734;11.510;2023-02-05T06:16:36;4.50;;;1.67;;
13108;SDS011;6620;53.734;11.510;2023-02-05T06:19:01;1.07;;;0.43;;
13108;SDS011;6620;53.734;11.510;2023-02-05T06:21:27;1.02;;;0.70;;
13108;SDS011;6620;53.734;11.510;2023-02-05T06:23:52;1.93;;;0.60;;
13108;SDS011;6620;53.734;11.510;2023-02-05T06:26:17;0.70;;;0.60;;
13108;SDS011;6620;53.734;11.510;2023-02-05T06:28:42;1.42;;;0.77;;
13108;SDS011;6620;53.734;11.510;2023-02-05T06:31:07;3.50;;;0.70;;
13108;SDS011;6620;53.734;11.510;2023-02-05T06:33:33;2.28;;;0.75;;
13108;SDS011;6620;53.734;11.510;2023-02-05T06:35:58;3.38;;;0.82;;
13108;SDS011;6620;53.734;11.510;2023-02-05T06:38:23;2.30;;;1.00;;
13108;SDS011;6620;53.734;11.510;2023-02-05T06:40:48;3.23;;;1.00;;
13108;SDS011;6620;53.734;11.510;2023-02-05T06:43:14;1.43;;;0.80;;
13108;SDS011;6620;53.734;11.510;2023-02-05T06:45:39;1.63;;;1.27;;
13108;SDS011;6620;53.734;11.510;2023-02-05T06:48:04;1.10;;;0.60;;
13108;SDS011;6620;53.734;11.510;2023-02-05T06:50:29;0.77;;;0.73;;
13108;SDS011;6620;53.734;11.510;2023-02-05T06:52:55;2.85;;;1.02;;
13108;SDS011;6620;53.734;11.510;2023-02-05T06:55:20;3.65;;;0.88;;
13108;SDS011;6620;53.734;11.510;2023-02-05T06:57:45;2.47;;;1.17;;
13108;SDS011;6620;53.734;11.510;2023-02-05T07:00:11;1.80;;;0.73;;
13108;SDS011;6620;53.734;11.510;2023-02-05T07:02:36;1.77;;;0.73;;
13108;SDS011;6620;53.734;11.510;2023-02-05T07:05:01;2.38;;;0.93;;
13108;SDS011;6620;53.734;11.510;2023-02-05T07:07:27;1.02;;;0.70;;
13108;SDS011;6620;53.734;11.510;2023-02-05T07:09:52;1.15;;;0.63;;
13108;SDS011;6620;53.734;11.510;2023-02-05T07:12:17;2.72;;;0.75;;
13108;SDS011;6620;53.734;11.510;2023-02-05T07:14:42;5.20;;;1.00;;
13108;SDS011;6620;53.734;11.510;2023-02-05T07:17:08;1.13;;;0.73;;
13108;SDS011;6620;53.734;11.510;2023-02-05T07:19:33;2.05;;;0.90;;
13108;SDS011;6620;53.734;11.510;2023-02-05T07:21:58;3.70;;;0.90;;
13108;SDS011;6620;53.734;11.510;2023-02-05T07:24:24;1.27;;;0.97;;
13108;SDS011;6620;53.734;11.510;2023-02-05T07:26:49;2.70;;;0.95;;
13108;SDS011;6620;53.734;11.510;2023-02-05T07:29:14;5.25;;;1.33;;
13108;SDS011;6620;53.734;11.510;2023-02-05T07:31:39;1.20;;;0.80;;
13108;SDS011;6620;53.734;11.510;2023-02-05T07:34:04;2.58;;;1.05;;
13108;SDS011;6620;53.734;11.510;2023-02-05T07:36:30;1.17;;;0.90;;
13108;SDS011;6620;53.734;11.510;2023-02-05T07:38:55;2.23;;;1.00;;
13108;SDS011;6620;53.734;11.510;2023-02-05T07:41:20;3.17;;;1.13;;
13108;SDS011;6620;53.734;11.510;2023-02-05T07:43:49;1.65;;;1.13;;
13108;SDS011;6620;53.734;11.510;2023-02-05T07:46:14;2.90;;;0.90;;
13108;SDS011;6620;53.734;11.510;2023-02-05T07:48:39;1.83;;;1.05;;
13108;SDS011;6620;53.734;11.510;2023-02-05T07:51:05;3.13;;;1.37;;
13108;SDS011;6620;53.734;11.510;2023-02-05T07:53:30;2.85;;;0.85;;
13108;SDS011;6620;53.734;11.510;2023-02-05T07:55:55;2.83;;;0.80;;
13108;SDS011;6620;53.734;11.510;2023-02-05T07:58:21;2.95;;;1.13;;
13108;SDS011;6620;53.734;11.510;2023-02-05T08:00:46;3.25;;;1.10;;
13108;SDS011;6620;53.734;11.510;2023-02-05T08:03:11;3.08;;;1.00;;
13108;SDS011;6620;53.734;11.510;2023-02-05T08:05:37;9.52;;;1.42;;
13108;SDS011;6620;53.734;11.510;2023-02-05T08:08:02;1.55;;;1.00;;
13108;SDS011;6620;53.734;11.510;2023-02-05T08:10:28;1.60;;;1.10;;
13108;SDS011;6620;53.734;11.510;2023-02-05T08:12:53;2.38;;;0.85;;
13108;SDS011;6620;53.734;11.510;2023-02-05T08:15:18;1.25;;;0.70;;
13108;SDS011;6620;53.734;11.510;2023-02-05T08:17:43;1.77;;;1.02;;
13108;SDS011;6620;53.734;11.510;2023-02-05T08:20:09;1.97;;;0.67;;
13108;SDS011;6620;53.734;11.510;2023-02-05T08:22:36;1.70;;;1.00;;
13108;SDS011;6620;53.734;11.510;2023-02-05T08:25:02;1.90;;;0.73;;
13108;SDS011;6620;53.734;11.510;2023-02-05T08:27:27;3.63;;;1.08;;
13108;SDS011;6620;53.734;11.510;2023-02-05T08:29:52;3.92;;;1.20;;
13108;SDS011;6620;53.734;11.510;2023-02-05T08:32:17;1.75;;;1.50;;
13108;SDS011;6620;53.734;11.510;2023-02-05T08:34:43;2.10;;;1.10;;
13108;SDS011;6620;53.734;11.510;2023-02-05T08:37:08;3.45;;;1.42;;
13108;SDS011;6620;53.734;11.510;2023-02-05T08:39:33;2.85;;;1.15;;
13108;SDS011;6620;53.734;11.510;2023-02-05T08:41:58;3.72;;;1.25;;
13108;SDS011;6620;53.734;11.510;2023-02-05T08:44:24;5.50;;;1.27;;
13108;SDS011;6620;53.734;11.510;2023-02-05T08:46:49;3.60;;;1.90;;
13108;SDS011;6620;53.734;11.510;2023-02-05T08:49:14;6.15;;;1.80;;
13108;SDS011;6620;53.734;11.510;2023-02-05T08:51:40;6.25;;;2.70;;
13108;SDS011;6620;53.734;11.510;2023-02-05T08:54:07;4.15;;;1.63;;
13108;SDS011;6620;53.734;11.510;2023-02-05T08:56:36;5.55;;;1.95;;
13108;SDS011;6620;53.734;11.510;2023-02-05T08:59:02;6.00;;;1.70;;
13108;SDS011;6620;53.734;11.510;2023-02-05T09:01:27;5.80;;;1.90;;
13108;SDS011;6620;53.734;11.510;2023-02-05T09:03:52;8.40;;;3.20;;
13108;SDS011;6620;53.734;11.510;2023-02-05T09:06:17;9.32;;;2.60;;
13108;SDS011;6620;53.734;11.510;2023-02-05T09:08:43;9.38;;;3.10;;
13108;SDS011;6620;53.734;11.510;2023-02-05T09:11:08;9.63;;;3.25;;
13108;SDS011;6620;53.734;11.510;2023-02-05T09:13:33;10.35;;;3.83;;
13108;SDS011;6620;53.734;11.510;2023-02-05T09:15:59;7.32;;;3.20;;
13108;SDS011;6620;53.734;11.510;2023-02-05T09:18:24;8.23;;;2.60;;
13108;SDS011;6620;53.734;11.510;2023-02-05T09:20:50;2.55;;;1.52;;
13108;SDS011;6620;53.734;11.510;2023-02-05T09:23:16;6.00;;;2.30;;
13108;SDS011;6620;53.734;11.510;2023-02-05T09:25:42;2.45;;;1.13;;
13108;SDS011;6620;53.734;11.510;2023-02-05T09:28:08;5.57;;;1.85;;
13108;SDS011;6620;53.734;11.510;2023-02-05T09:30:37;2.92;;;1.60;;
13108;SDS011;6620;53.734;11.510;2023-02-05T09:33:02;3.58;;;1.30;;
13108;SDS011;6620;53.734;11.510;2023-02-05T09:35:30;6.10;;;1.42;;
13108;SDS011;6620;53.734;11.510;2023-02-05T09:37:55;4.15;;;1.23;;
13108;SDS011;6620;53.734;11.510;2023-02-05T09:40:21;1.83;;;1.13;;
13108;SDS011;6620;53.734;11.510;2023-02-05T09:45:31;3.47;;;1.20;;
13108;SDS011;6620;53.734;11.510;2023-02-05T09:48:01;1.58;;;0.68;;
13108;SDS011;6620;53.734;11.510;2023-02-05T09:50:31;1.67;;;0.80;;
13108;SDS011;6620;53.734;11.510;2023-02-05T09:53:01;1.92;;;1.20;;
13108;SDS011;6620;53.734;11.510;2023-02-05T09:57:57;1.80;;;0.77;;
13108;SDS011;6620;53.734;11.510;2023-02-05T10:00:26;3.15;;;0.90;;
13108;SDS011;6620;53.734;11.510;2023-02-05T10:02:56;2.40;;;0.90;;
13108;SDS011;6620;53.734;11.510;2023-02-05T10:05:23;1.00;;;0.57;;
13108;SDS011;6620;53.734;11.510;2023-02-05T10:10:18;5.13;;;0.70;;
13108;SDS011;6620;53.734;11.510;2023-02-05T10:17:42;3.00;;;0.68;;
13108;SDS011;6620;53.734;11.510;2023-02-05T10:20:31;2.17;;;0.88;;
13108;SDS011;6620;53.734;11.510;2023-02-05T10:30:41;1.88;;;0.93;;
13108;SDS011;6620;53.734;11.510;2023-02-05T10:33:16;2.03;;;0.70;;
13108;SDS011;6620;53.734;11.510;2023-02-05T10:35:50;1.42;;;0.73;;
13108;SDS011;6620;53.734;11.510;2023-02-05T10:38:24;1.85;;;0.60;;
13108;SDS011;6620;53.734;11.510;2023-02-05T10:40:54;3.70;;;0.80;;
13108;SDS011;6620;53.734;11.510;2023-02-05T10:43:28;2.25;;;0.90;;
13108;SDS011;6620;53.734;11.510;2023-02-05T10:45:54;2.47;;;0.88;;
13108;SDS011;6620;53.734;11.510;2023-02-05T10:48:36;6.05;;;1.10;;
13108;SDS011;6620;53.734;11.510;2023-02-05T10:51:08;2.38;;;0.52;;
13108;SDS011;6620;53.734;11.510;2023-02-05T10:53:35;2.55;;;1.13;;
13108;SDS011;6620;53.734;11.510;2023-02-05T10:56:01;5.57;;;1.10;;
13108;SDS011;6620;53.734;11.510;2023-02-05T10:58:37;3.03;;;0.88;;
13108;SDS011;6620;53.734;11.510;2023-02-05T11:01:06;1.60;;;0.73;;
13108;SDS011;6620;53.734;11.510;2023-02-05T11:03:32;2.80;;;1.00;;
13108;SDS011;6620;53.734;11.510;2023-02-05T11:05:58;3.92;;;1.25;;
13108;SDS011;6620;53.734;11.510;2023-02-05T11:10:54;3.90;;;1.05;;
13108;SDS011;6620;53.734;11.510;2023-02-05T11:13:20;3.33;;;0.95;;
13108;SDS011;6620;53.734;11.510;2023-02-05T11:15:52;2.30;;;0.70;;
13108;SDS011;6620;53.734;11.510;2023-02-05T11:18:38;2.88;;;1.10;;
13108;SDS011;6620;53.734;11.510;2023-02-05T11:21:05;1.55;;;0.93;;
13108;SDS011;6620;53.734;11.510;2023-02-05T11:23:32;1.08;;;0.60;;
13108;SDS011;6620;53.734;11.510;2023-02-05T11:26:07;1.90;;;0.70;;
13108;SDS011;6620;53.734;11.510;2023-02-05T11:28:33;0.63;;;0.60;;
13108;SDS011;6620;53.734;11.510;2023-02-05T11:33:44;3.78;;;1.00;;
13108;SDS011;6620;53.734;11.510;2023-02-05T11:36:23;2.25;;;1.00;;
13108;SDS011;6620;53.734;11.510;2023-02-05T11:41:24;4.35;;;1.58;;
13108;SDS011;6620;53.734;11.510;2023-02-05T11:43:50;1.30;;;0.80;;
13108;SDS011;6620;53.734;11.510;2023-02-05T11:46:17;1.98;;;1.08;;
13108;SDS011;6620;53.734;11.510;2023-02-05T11:49:17;2.63;;;0.85;;
13108;SDS011;6620;53.734;11.510;2023-02-05T11:54:01;2.57;;;1.23;;
13108;SDS011;6620;53.734;11.510;2023-02-05T11:56:27;3.42;;;1.13;;
13108;SDS011;6620;53.734;11.510;2023-02-05T12:01:23;2.58;;;1.13;;
13108;SDS011;6620;53.734;11.510;2023-02-05T12:03:56;2.08;;;0.82;;
13108;SDS011;6620;53.734;11.510;2023-02-05T12:06:21;4.03;;;1.65;;
13108;SDS011;6620;53.734;11.510;2023-02-05T12:08:52;1.83;;;0.85;;
13108;SDS011;6620;53.734;11.510;2023-02-05T12:11:36;3.22;;;1.10;;
13108;SDS011;6620;53.734;11.510;2023-02-05T12:14:26;3.85;;;1.60;;
13108;SDS011;6620;53.734;11.510;2023-02-05T12:19:27;1.95;;;1.35;;
13108;SDS011;6620;53.734;11.510;2023-02-05T12:22:01;3.38;;;1.65;;
13108;SDS011;6620;53.734;11.510;2023-02-05T12:26:57;4.43;;;2.10;;
13108;SDS011;6620;53.734;11.510;2023-02-05T12:29:34;5.80;;;2.65;;
13108;SDS011;6620;53.734;11.510;2023-02-05T12:54:42;3.13;;;2.10;;
13108;SDS011;6620;53.734;11.510;2023-02-05T12:57:11;3.42;;;2.00;;
13108;SDS011;6620;53.734;11.510;2023-02-05T13:04:38;4.15;;;1.15;;
13108;SDS011;6620;53.734;11.510;2023-02-05T13:09:46;4.18;;;2.92;;
13108;SDS011;6620;53.734;11.510;2023-02-05T13:12:14;3.10;;;1.75;;
13108;SDS011;6620;53.734;11.510;2023-02-05T13:14:42;3.15;;;1.90;;
13108;SDS011;6620;53.734;11.510;2023-02-05T13:17:13;4.90;;;2.50;;
13108;SDS011;6620;53.734;11.510;2023-02-05T13:19:43;3.13;;;1.70;;
13108;SDS011;6620;53.734;11.510;2023-02-05T13:22:15;2.50;;;1.83;;
13108;SDS011;6620;53.734;11.510;2023-02-05T13:25:06;3.45;;;2.30;;
13108;SDS011;6620;53.734;11.510;2023-02-05T13:27:56;2.83;;;2.42;;
13108;SDS011;6620;53.734;11.510;2023-02-05T13:30:45;3.38;;;1.80;;
13108;SDS011;6620;53.734;11.510;2023-02-05T13:33:11;3.95;;;2.00;;
13108;SDS011;6620;53.734;11.510;2023-02-05T13:35:44;5.60;;;2.05;;
13108;SDS011;6620;53.734;11.510;2023-02-05T13:41:22;4.57;;;2.30;;
13108;SDS011;6620;53.734;11.510;2023-02-05T13:49:30;5.10;;;2.47;;
13108;SDS011;6620;53.734;11.510;2023-02-05T13:59:53;6.07;;;3.17;;
13108;SDS011;6620;53.734;11.510;2023-02-05T14:04:56;4.10;;;2.22;;
13108;SDS011;6620;53.734;11.510;2023-02-05T14:07:24;3.30;;;2.03;;
13108;SDS011;6620;53.734;11.510;2023-02-05T14:09:53;4.10;;;2.00;;
13108;SDS011;6620;53.734;11.510;2023-02-05T14:12:24;3.95;;;2.10;;
13108;SDS011;6620;53.734;11.510;2023-02-05T14:15:34;4.15;;;2.28;;
13108;SDS011;6620;53.734;11.510;2023-02-05T14:20:29;5.20;;;1.60;;
13108;SDS011;6620;53.734;11.510;2023-02-05T14:28:02;3.33;;;1.25;;
13108;SDS011;6620;53.734;11.510;2023-02-05T14:33:02;3.83;;;1.27;;
13108;SDS011;6620;53.734;11.510;2023-02-05T14:35:34;5.57;;;1.30;;
13108;SDS011;6620;53.734;11.510;2023-02-05T14:38:21;1.35;;;0.90;;
13108;SDS011;6620;53.734;11.510;2023-02-05T14:43:37;3.92;;;1.20;;
13108;SDS011;6620;53.734;11.510;2023-02-05T14:46:04;3.83;;;0.98;;
13108;SDS011;6620;53.734;11.510;2023-02-05T14:48:32;2.75;;;1.13;;
13108;SDS011;6620;53.734;11.510;2023-02-05T14:53:26;2.50;;;0.90;;
13108;SDS011;6620;53.734;11.510;2023-02-05T14:55:53;2.05;;;1.00;;
13108;SDS011;6620;53.734;11.510;2023-02-05T14:58:24;2.67;;;1.60;;
13108;SDS011;6620;53.734;11.510;2023-02-05T15:00:51;2.15;;;1.10;;
13108;SDS011;6620;53.734;11.510;2023-02-05T15:03:36;1.60;;;0.77;;
13108;SDS011;6620;53.734;11.510;2023-02-05T15:06:06;2.67;;;1.02;;
13108;SDS011;6620;53.734;11.510;2023-02-05T15:11:19;3.47;;;1.00;;
13108;SDS011;6620;53.734;11.510;2023-02-05T15:16:30;2.10;;;1.20;;
13108;SDS011;6620;53.734;11.510;2023-02-05T15:18:58;1.63;;;0.95;;
13108;SDS011;6620;53.734;11.510;2023-02-05T15:21:32;3.08;;;1.38;;
13108;SDS011;6620;53.734;11.510;2023-02-05T15:24:11;1.75;;;1.15;;
13108;SDS011;6620;53.734;11.510;2023-02-05T15:29:06;4.22;;;1.55;;
13108;SDS011;6620;53.734;11.510;2023-02-05T15:31:35;2.35;;;1.30;;
13108;SDS011;6620;53.734;11.510;2023-02-05T15:34:05;2.70;;;0.93;;
13108;SDS011;6620;53.734;11.510;2023-02-05T15:37:22;2.47;;;1.35;;
13108;SDS011;6620;53.734;11.510;2023-02-05T15:39:23;3.25;;;1.38;;
13108;SDS011;6620;53.734;11.510;2023-02-05T15:41:51;7.65;;;2.10;;
13108;SDS011;6620;53.734;11.510;2023-02-05T15:44:19;4.05;;;1.55;;
13108;SDS011;6620;53.734;11.510;2023-02-05T15:46:44;2.63;;;1.27;;
13108;SDS011;6620;53.734;11.510;2023-02-05T15:49:10;3.03;;;1.70;;
13108;SDS011;6620;53.734;11.510;2023-02-05T15:51:36;3.00;;;1.77;;
13108;SDS011;6620;53.734;11.510;2023-02-05T15:54:02;2.88;;;1.60;;
13108;SDS011;6620;53.734;11.510;2023-02-05T15:56:33;4.88;;;1.60;;
13108;SDS011;6620;53.734;11.510;2023-02-05T15:59:00;4.22;;;1.50;;
13108;SDS011;6620;53.734;11.510;2023-02-05T16:03:54;2.60;;;1.30;;
13108;SDS011;6620;53.734;11.510;2023-02-05T16:06:20;6.50;;;1.53;;
13108;SDS011;6620;53.734;11.510;2023-02-05T16:08:46;3.00;;;1.23;;
13108;SDS011;6620;53.734;11.510;2023-02-05T16:11:12;3.88;;;1.15;;
13108;SDS011;6620;53.734;11.510;2023-02-05T16:13:37;2.37;;;1.33;;
13108;SDS011;6620;53.734;11.510;2023-02-05T16:18:31;45.73;;;5.03;;
13108;SDS011;6620;53.734;11.510;2023-02-05T16:20:57;38.85;;;3.38;;
13108;SDS011;6620;53.734;11.510;2023-02-05T16:23:34;11.20;;;1.55;;
13108;SDS011;6620;53.734;11.510;2023-02-05T16:28:42;13.17;;;1.50;;
13108;SDS011;6620;53.734;11.510;2023-02-05T16:31:09;9.68;;;1.60;;
13108;SDS011;6620;53.734;11.510;2023-02-05T16:33:39;10.35;;;1.67;;
13108;SDS011;6620;53.734;11.510;2023-02-05T16:36:13;14.13;;;1.70;;
13108;SDS011;6620;53.734;11.510;2023-02-05T16:38:39;9.77;;;1.52;;
13108;SDS011;6620;53.734;11.510;2023-02-05T16:43:49;16.30;;;3.42;;
13108;SDS011;6620;53.734;11.510;2023-02-05T16:46:19;9.48;;;3.10;;
13108;SDS011;6620;53.734;11.510;2023-02-05T16:51:27;12.57;;;2.83;;
13108;SDS011;6620;53.734;11.510;2023-02-05T16:53:55;8.82;;;2.40;;
13108;SDS011;6620;53.734;11.510;2023-02-05T16:56:22;5.15;;;2.58;;
13108;SDS011;6620;53.734;11.510;2023-02-05T16:58:50;6.70;;;2.63;;
13108;SDS011;6620;53.734;11.510;2023-02-05T17:01:20;5.10;;;2.65;;
13108;SDS011;6620;53.734;11.510;2023-02-05T17:03:47;6.45;;;3.40;;
13108;SDS011;6620;53.734;11.510;2023-02-05T17:06:13;7.18;;;3.00;;
13108;SDS011;6620;53.734;11.510;2023-02-05T17:08:39;7.68;;;4.15;;
13108;SDS011;6620;53.734;11.510;2023-02-05T17:11:29;5.15;;;2.80;;
13108;SDS011;6620;53.734;11.510;2023-02-05T17:13:58;4.25;;;2.40;;
13108;SDS011;6620;53.734;11.510;2023-02-05T17:16:33;6.93;;;2.80;;
13108;SDS011;6620;53.734;11.510;2023-02-05T17:19:05;5.32;;;2.63;;
13108;SDS011;6620;53.734;11.510;2023-02-05T17:21:45;3.83;;;2.70;;
13108;SDS011;6620;53.734;11.510;2023-02-05T17:24:10;5.37;;;2.50;;
13108;SDS011;6620;53.734;11.510;2023-02-05T17:26:36;4.40;;;2.40;;
13108;SDS011;6620;53.734;11.510;2023-02-05T17:29:03;5.82;;;2.42;;
13108;SDS011;6620;53.734;11.510;2023-02-05T17:31:29;4.75;;;2.17;;